createdAt,value
2018-11-13T00:00:22.530Z,21.57
2018-11-13T00:02:52.273Z,21.43
2018-11-13T00:05:22.058Z,21.07
2018-11-13T00:07:51.187Z,21.73
2018-11-13T00:10:20.332Z,24.50
2018-11-13T00:12:56.365Z,22.93
2018-11-13T00:15:25.483Z,25.03
2018-11-13T00:17:54.618Z,24.80
2018-11-13T00:20:23.802Z,25.13
2018-11-13T00:22:52.950Z,23.07
2018-11-13T00:25:22.109Z,24.13
2018-11-13T00:27:51.223Z,21.53
2018-11-13T00:30:23.649Z,21.77
2018-11-13T00:32:52.877Z,22.80
2018-11-13T00:35:22.599Z,24.53
2018-11-13T00:37:52.486Z,26.03
2018-11-13T00:40:21.612Z,23.90
2018-11-13T00:42:50.821Z,23.50
2018-11-13T00:45:20.053Z,25.37
2018-11-13T00:47:49.108Z,25.60
2018-11-13T00:50:19.409Z,24.40
2018-11-13T00:52:48.836Z,25.03
2018-11-13T00:55:17.946Z,23.97
2018-11-13T00:57:48.121Z,27.50
2018-11-13T01:00:18.867Z,27.20
2018-11-13T01:02:47.967Z,25.20
2018-11-13T01:05:18.359Z,24.00
2018-11-13T01:07:48.138Z,23.30
2018-11-13T01:10:18.161Z,23.27
2018-11-13T01:12:47.718Z,22.90
2018-11-13T01:15:18.092Z,21.60
2018-11-13T01:17:47.762Z,21.67
2018-11-13T01:20:17.569Z,23.23
2018-11-13T01:22:46.720Z,22.00
2018-11-13T01:25:16.691Z,21.57
2018-11-13T01:27:46.117Z,27.53
2018-11-13T01:30:16.112Z,27.83
2018-11-13T01:32:45.702Z,23.80
2018-11-13T01:35:16.345Z,27.80
2018-11-13T01:37:45.502Z,27.60
2018-11-13T01:40:16.995Z,31.73
2018-11-13T01:42:46.155Z,35.07
2018-11-13T01:45:16.403Z,31.77
2018-11-13T01:47:45.556Z,30.60
2018-11-13T01:50:15.130Z,35.23
2018-11-13T01:52:44.261Z,30.73
2018-11-13T01:55:14.551Z,27.67
2018-11-13T01:57:43.688Z,28.90
2018-11-13T02:00:17.776Z,27.40
2018-11-13T02:02:48.264Z,29.70
2018-11-13T02:05:18.514Z,26.57
2018-11-13T02:07:47.700Z,28.60
2018-11-13T02:10:17.221Z,26.90
2018-11-13T02:12:46.804Z,24.60
2018-11-13T02:15:16.220Z,23.63
2018-11-13T02:17:45.415Z,24.57
2018-11-13T02:20:17.280Z,25.83
2018-11-13T02:22:46.431Z,26.70
2018-11-13T02:25:16.685Z,23.10
2018-11-13T02:27:46.298Z,22.50
2018-11-13T02:30:16.936Z,23.03
2018-11-13T02:32:46.750Z,20.97
2018-11-13T02:35:16.353Z,21.40
2018-11-13T02:37:45.643Z,22.17
2018-11-13T02:40:14.903Z,21.13
2018-11-13T02:42:44.049Z,23.00
2018-11-13T02:45:15.601Z,21.50
2018-11-13T02:47:44.810Z,20.07
2018-11-13T02:50:16.001Z,19.30
2018-11-13T02:52:45.168Z,20.33
2018-11-13T02:55:14.631Z,18.40
2018-11-13T02:57:44.364Z,18.43
2018-11-13T03:00:15.688Z,17.60
2018-11-13T03:02:44.839Z,18.77
2018-11-13T03:05:21.708Z,16.87
2018-11-13T03:07:50.819Z,19.40
2018-11-13T03:10:20.591Z,21.00
2018-11-13T03:12:49.747Z,18.70
2018-11-13T03:15:19.935Z,21.70
2018-11-13T03:17:49.102Z,19.80
2018-11-13T03:20:19.323Z,21.87
2018-11-13T03:22:49.047Z,24.33
2018-11-13T03:28:15.083Z,23.27
2018-11-13T03:30:44.256Z,23.93
2018-11-13T03:33:13.406Z,22.43
2018-11-13T03:35:42.564Z,23.17
2018-11-13T03:38:18.211Z,21.57
2018-11-13T03:40:47.347Z,24.60
2018-11-13T03:43:16.487Z,23.53
2018-11-13T03:45:45.624Z,23.00
2018-11-13T03:48:14.760Z,22.67
2018-11-13T03:50:43.886Z,22.60
2018-11-13T03:53:13.023Z,23.10
2018-11-13T03:55:42.171Z,25.07
2018-11-13T03:58:11.318Z,27.47
2018-11-13T04:00:40.422Z,24.30
2018-11-13T04:03:15.927Z,24.57
2018-11-13T04:05:45.054Z,24.63
2018-11-13T04:08:14.190Z,25.70
2018-11-13T04:10:43.343Z,24.77
2018-11-13T04:13:12.463Z,23.90
2018-11-13T04:15:41.632Z,24.73
2018-11-13T04:18:10.769Z,24.93
2018-11-13T04:20:39.903Z,22.73
2018-11-13T04:23:09.002Z,24.37
2018-11-13T04:28:35.501Z,23.87
2018-11-13T04:31:04.663Z,22.13
2018-11-13T04:33:33.781Z,24.27
2018-11-13T04:36:02.916Z,22.87
2018-11-13T04:38:32.073Z,23.93
2018-11-13T04:41:01.199Z,24.30
2018-11-13T04:43:30.308Z,23.10
2018-11-13T04:45:59.420Z,24.23
2018-11-13T04:48:28.555Z,23.27
2018-11-13T04:50:57.662Z,24.97
2018-11-13T04:53:26.776Z,24.93
2018-11-13T04:55:55.907Z,25.93
2018-11-13T04:58:25.029Z,22.97
2018-11-13T05:00:54.193Z,25.27
2018-11-13T05:03:23.319Z,23.60
2018-11-13T05:05:52.453Z,25.37
2018-11-13T05:08:21.571Z,24.70
2018-11-13T05:10:50.708Z,25.90
2018-11-13T05:13:19.861Z,24.07
2018-11-13T05:15:48.992Z,28.37
2018-11-13T05:18:18.150Z,27.83
2018-11-13T05:20:47.267Z,27.07
2018-11-13T05:23:16.502Z,26.73
2018-11-13T05:25:45.575Z,29.87
2018-11-13T05:28:14.699Z,26.30
2018-11-13T05:30:43.854Z,26.33
2018-11-13T05:33:12.980Z,26.67
2018-11-13T05:35:42.127Z,26.50
2018-11-13T05:38:11.496Z,25.13
2018-11-13T05:40:41.446Z,27.10
2018-11-13T05:43:11.002Z,25.20
2018-11-13T05:45:40.160Z,28.00
2018-11-13T05:48:09.417Z,26.70
2018-11-13T05:50:38.579Z,27.77
2018-11-13T05:53:07.716Z,27.13
2018-11-13T05:55:36.858Z,28.23
2018-11-13T05:58:06.184Z,27.87
2018-11-13T06:00:35.482Z,27.30
2018-11-13T06:03:05.109Z,26.70
2018-11-13T06:05:34.271Z,28.33
2018-11-13T06:08:03.406Z,29.40
2018-11-13T06:10:32.601Z,27.23
2018-11-13T06:13:01.741Z,27.83
2018-11-13T06:15:30.894Z,27.43
2018-11-13T06:18:00.085Z,28.63
2018-11-13T06:20:29.187Z,28.47
2018-11-13T06:22:58.399Z,27.73
2018-11-13T06:25:27.504Z,30.30
2018-11-13T06:27:56.645Z,30.47
2018-11-13T06:30:26.376Z,28.47
2018-11-13T06:32:55.555Z,27.83
2018-11-13T06:35:24.721Z,28.00
2018-11-13T06:37:53.834Z,30.03
2018-11-13T06:40:23.056Z,28.40
2018-11-13T06:42:52.161Z,29.90
2018-11-13T06:45:23.172Z,31.07
2018-11-13T06:47:52.590Z,28.50
2018-11-13T06:50:21.727Z,33.00
2018-11-13T06:52:51.325Z,29.53
2018-11-13T06:55:35.811Z,30.37
2018-11-13T06:58:05.177Z,34.20
2018-11-13T07:00:34.319Z,30.37
2018-11-13T07:03:03.493Z,32.47
2018-11-13T07:05:32.608Z,31.60
2018-11-13T07:08:02.744Z,30.07
2018-11-13T07:10:31.931Z,33.10
2018-11-13T07:13:01.013Z,32.60
2018-11-13T07:15:31.307Z,30.23
2018-11-13T07:18:01.837Z,31.60
2018-11-13T07:20:32.251Z,31.00
2018-11-13T07:23:01.400Z,28.37
2018-11-13T07:25:30.588Z,31.13
2018-11-13T07:27:59.726Z,30.37
2018-11-13T07:30:29.260Z,31.10
2018-11-13T07:32:58.462Z,31.67
2018-11-13T07:35:27.737Z,32.70
2018-11-13T07:37:58.145Z,32.57
2018-11-13T07:40:27.299Z,30.40
2018-11-13T07:42:56.674Z,31.80
2018-11-13T07:45:25.813Z,31.90
2018-11-13T07:47:55.341Z,30.30
2018-11-13T07:50:24.404Z,33.10
2018-11-13T07:52:53.533Z,33.23
2018-11-13T07:55:22.658Z,35.80
2018-11-13T07:57:51.783Z,32.83
2018-11-13T08:00:22.280Z,31.67
2018-11-13T08:02:52.727Z,37.13
2018-11-13T08:05:21.990Z,31.63
2018-11-13T08:07:51.145Z,35.47
2018-11-13T08:10:20.299Z,34.57
2018-11-13T08:12:49.471Z,34.27
2018-11-13T08:15:19.411Z,36.53
2018-11-13T08:17:48.540Z,34.30
2018-11-13T08:20:17.679Z,33.73
2018-11-13T08:22:46.831Z,34.47
2018-11-13T08:25:15.982Z,33.50
2018-11-13T08:27:45.156Z,33.97
2018-11-13T08:30:16.887Z,32.93
2018-11-13T08:32:46.670Z,33.63
2018-11-13T08:35:16.022Z,35.70
2018-11-13T08:37:45.237Z,32.43
2018-11-13T08:40:15.617Z,33.63
2018-11-13T08:42:45.397Z,35.40
2018-11-13T08:45:15.246Z,32.43
2018-11-13T08:47:44.647Z,32.70
2018-11-13T08:50:14.537Z,29.87
2018-11-13T08:52:44.407Z,32.93
2018-11-13T08:55:13.966Z,33.43
2018-11-13T08:57:43.391Z,33.77
2018-11-13T09:00:14.710Z,29.73
2018-11-13T09:02:44.439Z,31.53
2018-11-13T09:05:13.649Z,31.13
2018-11-13T09:07:42.821Z,30.70
2018-11-13T09:10:13.874Z,29.23
2018-11-13T09:12:43.480Z,30.77
2018-11-13T09:15:14.821Z,30.77
2018-11-13T09:17:44.075Z,28.63
2018-11-13T09:20:17.321Z,23.70
2018-11-13T09:22:46.522Z,22.23
2018-11-13T09:25:17.088Z,19.80
2018-11-13T09:27:46.265Z,20.67
2018-11-13T09:30:17.883Z,21.03
2018-11-13T09:32:47.461Z,21.40
2018-11-13T09:35:17.443Z,22.30
2018-11-13T09:37:46.636Z,20.10
2018-11-13T09:40:18.837Z,17.20
2018-11-13T09:42:49.276Z,17.03
2018-11-13T09:45:18.702Z,13.90
2018-11-13T09:47:48.024Z,15.60
2018-11-13T09:50:18.444Z,14.70
2018-11-13T09:52:48.767Z,14.90
2018-11-13T09:55:19.197Z,14.60
2018-11-13T09:57:48.415Z,13.93
2018-11-13T10:00:19.806Z,12.67
2018-11-13T10:02:50.654Z,12.77
2018-11-13T10:05:20.171Z,13.13
2018-11-13T10:07:50.002Z,12.70
2018-11-13T10:10:19.259Z,12.70
2018-11-13T10:12:48.687Z,10.80
2018-11-13T10:15:19.432Z,10.07
2018-11-13T10:17:48.666Z,10.50
2018-11-13T10:20:18.162Z,10.00
2018-11-13T10:22:49.893Z,9.30
2018-11-13T10:25:19.078Z,6.70
2018-11-13T10:27:48.377Z,6.40
2018-11-13T10:30:19.852Z,5.10
2018-11-13T10:32:49.389Z,4.53
2018-11-13T10:35:20.011Z,4.73
2018-11-13T10:37:49.103Z,4.77
2018-11-13T10:40:19.462Z,4.93
2018-11-13T10:42:48.791Z,3.77
2018-11-13T10:45:19.448Z,4.10
2018-11-13T10:47:48.576Z,4.60
2018-11-13T10:50:20.792Z,4.60
2018-11-13T10:52:49.851Z,4.97
2018-11-13T10:55:19.042Z,3.80
2018-11-13T10:57:48.188Z,3.50
2018-11-13T11:00:22.932Z,4.33
2018-11-13T11:03:54.912Z,3.90
2018-11-13T11:06:24.042Z,4.77
2018-11-13T11:08:53.172Z,4.13
2018-11-13T11:11:22.411Z,4.67
2018-11-13T11:13:51.781Z,5.20
2018-11-13T11:16:20.959Z,5.70
2018-11-13T11:18:50.183Z,5.80
2018-11-13T11:21:19.201Z,5.37
2018-11-13T11:23:48.340Z,5.10
2018-11-13T11:26:17.487Z,4.57
2018-11-13T11:28:46.611Z,4.90
2018-11-13T11:31:15.792Z,3.93
2018-11-13T11:33:44.928Z,3.50
2018-11-13T11:36:14.045Z,3.37
2018-11-13T11:38:43.209Z,2.27
2018-11-13T11:41:12.311Z,1.40
2018-11-13T11:43:41.427Z,1.90
2018-11-13T11:46:10.619Z,1.53
2018-11-13T11:48:39.772Z,1.93
2018-11-13T11:51:08.922Z,1.80
2018-11-13T11:53:38.029Z,2.27
2018-11-13T11:56:07.154Z,1.73
2018-11-13T11:58:36.274Z,1.57
2018-11-13T12:01:05.600Z,1.10
2018-11-13T12:03:34.750Z,0.90
2018-11-13T12:06:03.902Z,0.70
2018-11-13T12:08:33.043Z,1.10
2018-11-13T12:11:02.186Z,1.00
2018-11-13T12:13:31.306Z,1.73
2018-11-13T12:16:00.480Z,0.83
2018-11-13T12:18:29.613Z,1.30
2018-11-13T12:20:58.735Z,0.90
2018-11-13T12:23:27.850Z,1.20
2018-11-13T12:25:57.099Z,1.27
2018-11-13T12:28:26.198Z,1.23
2018-11-13T12:30:55.290Z,1.17
2018-11-13T12:33:24.496Z,1.10
2018-11-13T12:35:53.589Z,1.10
2018-11-13T12:38:22.767Z,1.00
2018-11-13T12:40:51.935Z,1.33
2018-11-13T12:43:20.998Z,0.90
2018-11-13T12:45:50.124Z,1.10
2018-11-13T12:48:19.286Z,1.00
2018-11-13T12:50:53.654Z,1.20
2018-11-13T12:53:22.770Z,0.90
2018-11-13T12:55:52.004Z,0.83
2018-11-13T12:58:21.037Z,1.20
2018-11-13T13:00:50.151Z,0.80
2018-11-13T13:03:19.283Z,1.33
2018-11-13T13:05:48.419Z,1.20
2018-11-13T13:08:17.564Z,1.07
2018-11-13T13:10:46.656Z,1.10
2018-11-13T13:13:15.769Z,0.70
2018-11-13T13:15:44.874Z,1.13
2018-11-13T13:18:13.997Z,1.10
2018-11-13T13:20:43.093Z,1.00
2018-11-13T13:23:12.224Z,0.50
2018-11-13T13:25:41.424Z,0.90
2018-11-13T13:28:10.498Z,0.87
2018-11-13T13:30:39.625Z,1.27
2018-11-13T13:33:08.728Z,0.77
2018-11-13T13:35:41.743Z,1.10
2018-11-13T13:38:11.311Z,0.60
2018-11-13T13:40:41.312Z,0.87
2018-11-13T13:43:11.252Z,1.17
2018-11-13T13:45:41.045Z,1.37
2018-11-13T13:48:10.238Z,1.40
2018-11-13T13:50:39.668Z,0.90
2018-11-13T13:53:10.226Z,0.97
2018-11-13T13:55:39.380Z,1.40
2018-11-13T13:58:08.476Z,1.33
2018-11-13T14:00:37.594Z,0.80
2018-11-13T14:03:08.379Z,0.90
2018-11-13T14:05:37.845Z,0.70
2018-11-13T14:08:07.877Z,0.80
2018-11-13T14:10:37.024Z,1.10
2018-11-13T14:13:06.207Z,0.90
2018-11-13T14:15:35.431Z,0.90
2018-11-13T14:18:04.920Z,0.77
2018-11-13T14:20:34.173Z,1.67
2018-11-13T14:23:03.348Z,1.00
2018-11-13T14:25:33.228Z,0.70
2018-11-13T14:28:02.355Z,0.80
2018-11-13T14:30:33.895Z,0.80
2018-11-13T14:33:04.339Z,1.03
2018-11-13T14:35:33.577Z,1.00
2018-11-13T14:38:03.026Z,0.70
2018-11-13T14:40:39.071Z,1.37
2018-11-13T14:43:08.530Z,1.20
2018-11-13T14:45:37.787Z,1.23
2018-11-13T14:48:07.803Z,1.37
2018-11-13T14:50:37.207Z,0.70
2018-11-13T14:53:07.040Z,0.90
2018-11-13T14:55:37.349Z,1.33
2018-11-13T14:58:08.264Z,0.80
2018-11-13T15:00:40.966Z,1.10
2018-11-13T15:03:11.583Z,0.70
2018-11-13T15:05:40.712Z,0.93
2018-11-13T15:08:10.425Z,0.90
2018-11-13T15:10:47.090Z,1.10
2018-11-13T15:13:16.581Z,0.73
2018-11-13T15:15:45.707Z,0.97
2018-11-13T15:18:14.922Z,0.90
2018-11-13T15:20:44.435Z,0.90
2018-11-13T15:23:14.190Z,1.27
2018-11-13T15:25:43.336Z,1.03
2018-11-13T15:28:12.798Z,1.57
2018-11-13T15:30:46.223Z,1.43
2018-11-13T15:33:20.423Z,1.70
2018-11-13T15:35:49.553Z,1.30
2018-11-13T15:38:18.711Z,2.10
2018-11-13T15:40:47.852Z,1.60
2018-11-13T15:43:17.019Z,1.40
2018-11-13T15:45:46.193Z,1.30
2018-11-13T15:48:15.909Z,1.30
2018-11-13T15:50:45.055Z,1.20
2018-11-13T15:53:14.171Z,1.40
2018-11-13T15:55:43.303Z,2.43
2018-11-13T15:58:12.450Z,1.73
2018-11-13T16:00:42.643Z,1.50
2018-11-13T16:03:16.506Z,1.50
2018-11-13T16:05:47.976Z,2.20
2018-11-13T16:08:17.099Z,2.10
2018-11-13T16:10:46.238Z,1.50
2018-11-13T16:13:15.421Z,2.37
2018-11-13T16:15:45.081Z,2.00
2018-11-13T16:18:15.743Z,2.03
2018-11-13T16:20:44.907Z,1.80
2018-11-13T16:23:14.027Z,2.20
2018-11-13T16:25:43.284Z,1.80
2018-11-13T16:28:12.428Z,2.20
2018-11-13T16:30:41.843Z,3.33
2018-11-13T16:33:10.790Z,2.50
2018-11-13T16:35:39.912Z,4.00
2018-11-13T16:38:10.480Z,4.40
2018-11-13T16:40:41.132Z,4.80
2018-11-13T16:43:08.897Z,4.97
2018-11-13T16:45:38.019Z,4.80
2018-11-13T16:48:07.809Z,4.87
2018-11-13T16:50:40.097Z,5.97
2018-11-13T16:53:09.288Z,5.43
2018-11-13T16:55:43.804Z,5.70
2018-11-13T16:58:14.249Z,6.20
2018-11-13T17:00:43.431Z,3.70
2018-11-13T17:03:12.507Z,5.17
2018-11-13T17:05:41.665Z,4.80
2018-11-13T17:08:10.732Z,4.50
2018-11-13T17:10:41.055Z,5.57
2018-11-13T17:13:10.211Z,4.70
2018-11-13T17:15:39.553Z,5.17
2018-11-13T17:18:08.700Z,4.93
2018-11-13T17:20:37.812Z,4.67
2018-11-13T17:23:07.017Z,5.20
2018-11-13T17:25:37.662Z,6.57
2018-11-13T17:28:07.780Z,5.20
2018-11-13T17:30:37.214Z,4.90
2018-11-13T17:33:08.736Z,5.13
2018-11-13T17:35:37.876Z,6.10
2018-11-13T17:38:07.261Z,5.80
2018-11-13T17:40:37.170Z,5.50
2018-11-13T17:43:07.677Z,4.40
2018-11-13T17:45:38.036Z,5.13
2018-11-13T17:48:08.748Z,6.00
2018-11-13T17:50:40.184Z,6.10
2018-11-13T17:53:10.462Z,5.63
2018-11-13T17:55:39.817Z,5.50
2018-11-13T17:58:12.448Z,5.03
2018-11-13T18:00:42.854Z,4.70
2018-11-13T18:03:14.074Z,5.20
2018-11-13T18:05:44.449Z,5.20
2018-11-13T18:08:13.832Z,3.77
2018-11-13T18:10:44.125Z,4.00
2018-11-13T18:13:13.251Z,3.00
2018-11-13T18:15:42.391Z,3.67
2018-11-13T18:18:11.494Z,4.20
2018-11-13T18:20:41.524Z,4.50
2018-11-13T18:23:10.932Z,4.60
2018-11-13T18:25:40.090Z,4.53
2018-11-13T18:28:09.487Z,4.30
2018-11-13T18:30:39.146Z,4.23
2018-11-13T18:33:08.849Z,4.90
2018-11-13T18:35:38.975Z,4.57
2018-11-13T18:38:09.629Z,4.03
2018-11-13T18:40:38.731Z,5.00
2018-11-13T18:43:08.007Z,3.90
2018-11-13T18:45:38.634Z,5.23
2018-11-13T18:48:07.749Z,5.00
2018-11-13T18:50:38.469Z,4.73
2018-11-13T18:53:07.629Z,5.43
2018-11-13T18:55:36.804Z,5.00
2018-11-13T18:58:06.017Z,5.50
2018-11-13T19:00:37.306Z,4.73
2018-11-13T19:03:07.701Z,5.07
2018-11-13T19:05:36.882Z,4.60
2018-11-13T19:08:06.596Z,5.00
2018-11-13T19:10:38.639Z,5.33
2018-11-13T19:13:11.629Z,4.90
2018-11-13T19:15:43.168Z,4.60
2018-11-13T19:18:12.700Z,5.33
2018-11-13T19:20:42.049Z,5.27
2018-11-13T19:23:11.160Z,5.27
2018-11-13T19:25:40.748Z,5.17
2018-11-13T19:28:09.887Z,5.87
2018-11-13T19:30:38.986Z,5.70
2018-11-13T19:33:08.143Z,5.50
2018-11-13T19:35:37.431Z,4.70
2018-11-13T19:38:06.808Z,5.13
2018-11-13T19:40:36.360Z,4.40
2018-11-13T19:43:07.139Z,6.30
2018-11-13T19:45:36.243Z,5.87
2018-11-13T19:48:05.438Z,5.93
2018-11-13T19:50:35.703Z,4.80
2018-11-13T19:53:05.001Z,5.93
2018-11-13T19:55:34.622Z,4.80
2018-11-13T19:58:03.789Z,5.30
2018-11-13T20:00:35.468Z,5.37
2018-11-13T20:03:06.003Z,6.20
2018-11-13T20:05:35.120Z,6.57
2018-11-13T20:08:04.279Z,6.07
2018-11-13T20:10:34.765Z,6.40
2018-11-13T20:13:04.950Z,6.20
2018-11-13T20:15:34.844Z,6.60
2018-11-13T20:18:04.020Z,5.63
2018-11-13T20:20:34.062Z,6.30
2018-11-13T20:23:04.427Z,6.83
2018-11-13T20:25:34.296Z,7.60
2018-11-13T20:28:03.503Z,6.97
2018-11-13T20:30:35.249Z,7.43
2018-11-13T20:33:04.391Z,7.80
2018-11-13T20:35:33.511Z,6.60
2018-11-13T20:38:03.363Z,7.60
2018-11-13T20:40:33.800Z,6.97
2018-11-13T20:43:04.213Z,6.27
2018-11-13T20:45:33.321Z,6.73
2018-11-13T20:48:02.454Z,6.20
2018-11-13T20:50:32.812Z,7.07
2018-11-13T20:53:02.044Z,7.00
2018-11-13T20:55:31.239Z,7.30
2018-11-13T20:58:00.479Z,7.30
2018-11-13T21:00:30.754Z,7.30
2018-11-13T21:03:00.150Z,7.10
2018-11-13T21:05:29.328Z,7.17
2018-11-13T21:07:58.474Z,6.63
2018-11-13T21:10:35.359Z,6.50
2018-11-13T21:13:04.845Z,5.90
2018-11-13T21:15:33.951Z,6.70
2018-11-13T21:18:03.047Z,6.90
2018-11-13T21:20:32.157Z,5.67
2018-11-13T21:23:01.293Z,6.73
2018-11-13T21:25:30.411Z,6.57
2018-11-13T21:28:01.496Z,6.70
2018-11-13T21:30:30.865Z,6.47
2018-11-13T21:32:59.939Z,5.40
2018-11-13T21:35:29.047Z,6.90
2018-11-13T21:37:58.541Z,6.47
2018-11-13T21:40:28.178Z,7.33
2018-11-13T21:42:57.800Z,6.87
2018-11-13T21:45:27.826Z,6.80
2018-11-13T21:47:56.938Z,6.87
2018-11-13T21:50:27.530Z,7.37
2018-11-13T21:52:56.642Z,7.40
2018-11-13T21:55:27.098Z,7.57
2018-11-13T21:57:56.178Z,7.07
2018-11-13T22:00:31.936Z,6.63
2018-11-13T22:03:06.204Z,7.63
2018-11-13T22:05:35.910Z,7.17
2018-11-13T22:08:05.203Z,6.17
2018-11-13T22:10:34.262Z,7.07
2018-11-13T22:13:03.420Z,7.03
2018-11-13T22:15:32.526Z,7.47
2018-11-13T22:18:02.167Z,7.93
2018-11-13T22:20:31.064Z,6.47
2018-11-13T22:23:01.219Z,7.40
2018-11-13T22:25:30.369Z,6.67
2018-11-13T22:28:00.039Z,6.83
2018-11-13T22:30:30.349Z,8.07
2018-11-13T22:32:59.470Z,7.93
2018-11-13T22:35:28.622Z,7.43
2018-11-13T22:37:57.735Z,7.40
2018-11-13T22:40:28.168Z,6.80
2018-11-13T22:42:57.767Z,6.57
2018-11-13T22:45:28.103Z,7.60
2018-11-13T22:47:57.623Z,7.50
2018-11-13T22:50:28.995Z,7.43
2018-11-13T22:52:58.351Z,7.27
2018-11-13T22:55:27.471Z,6.97
2018-11-13T22:57:57.463Z,7.00
2018-11-13T23:00:43.953Z,6.90
2018-11-13T23:03:14.305Z,7.00
2018-11-13T23:05:44.331Z,7.67
2018-11-13T23:08:14.864Z,6.63
2018-11-13T23:10:43.979Z,7.90
2018-11-13T23:13:13.090Z,7.10
2018-11-13T23:15:42.231Z,7.33
2018-11-13T23:18:11.344Z,7.07
2018-11-13T23:20:40.471Z,8.00
2018-11-13T23:23:09.645Z,8.00
2018-11-13T23:25:38.823Z,7.80
2018-11-13T23:28:07.964Z,7.37
2018-11-13T23:30:37.133Z,6.80
2018-11-13T23:33:07.056Z,7.43
2018-11-13T23:35:35.664Z,6.93
2018-11-13T23:38:04.822Z,7.13
2018-11-13T23:40:33.976Z,6.33
2018-11-13T23:43:03.128Z,7.00
2018-11-13T23:45:32.245Z,6.50
2018-11-13T23:48:01.636Z,7.93
2018-11-13T23:50:30.506Z,7.60
2018-11-13T23:52:59.632Z,7.97
2018-11-13T23:55:28.817Z,8.10
2018-11-13T23:57:57.935Z,7.30
